Time;durP1;ratioP1;P1;durP2;ratioP2;P2;SDS_P1;SDS_P2;PMS_P1;PMS_P2;Temp;Humidity;BMP_temperature;BMP_pressure;BME280_temperature;BME280_humidity;BME280_pressure;Samples;Min_cycle;Max_cycle;Signal;HPM_P1;HPM_P2
2021/03/22 00:00:17;;;;;;;23.17;3.80;;;3.90;99.90;;;;;;5009057;28;20994;-79
2021/03/22 00:02:45;;;;;;;19.03;3.47;;;3.80;99.90;;;;;;5004531;28;20485;-79
2021/03/22 00:05:15;;;;;;;24.33;4.20;;;3.80;99.90;;;;;;4989354;28;20325;-79
2021/03/22 00:07:42;;;;;;;25.47;4.70;;;3.80;99.90;;;;;;4989939;28;20540;-80
2021/03/22 00:10:12;;;;;;;17.63;3.20;;;3.80;99.90;;;;;;4991283;28;20472;-79
2021/03/22 00:12:39;;;;;;;23.63;5.37;;;3.80;99.90;;;;;;5004798;28;20842;-79
2021/03/22 00:15:27;;;;;;;18.27;3.70;;;3.80;99.90;;;;;;4999469;28;20585;-80
2021/03/22 00:17:55;;;;;;;26.93;4.33;;;3.80;99.90;;;;;;5002251;28;20483;-79
2021/03/22 00:20:25;;;;;;;26.90;4.70;;;3.80;99.90;;;;;;5009307;28;20494;-79
2021/03/22 00:22:53;;;;;;;17.37;3.27;;;3.80;99.90;;;;;;5019723;28;21037;-79
2021/03/22 00:25:22;;;;;;;21.73;3.70;;;3.80;99.90;;;;;;5002565;28;20487;-79
2021/03/22 00:27:50;;;;;;;20.40;3.70;;;3.80;99.90;;;;;;4993342;28;21199;-79
2021/03/22 00:30:22;;;;;;;21.90;4.17;;;3.80;99.90;;;;;;4992637;28;20580;-79
2021/03/22 00:32:50;;;;;;;23.50;3.80;;;3.80;99.90;;;;;;4993353;28;20880;-79
2021/03/22 00:35:19;;;;;;;27.83;4.13;;;3.80;99.90;;;;;;4992930;28;20481;-79
2021/03/22 00:37:47;;;;;;;21.73;4.20;;;3.80;99.90;;;;;;4992086;28;20470;-79
2021/03/22 00:40:17;;;;;;;25.27;3.80;;;3.80;99.90;;;;;;4992137;28;20485;-80
2021/03/22 00:42:46;;;;;;;19.83;3.80;;;3.80;99.90;;;;;;5009168;28;20537;-80
2021/03/22 00:45:16;;;;;;;20.70;4.60;;;4.00;99.90;;;;;;5006701;28;20507;-79
2021/03/22 00:47:43;;;;;;;25.80;3.97;;;3.90;99.90;;;;;;5003260;28;20477;-79
2021/03/22 00:50:20;;;;;;;18.20;3.70;;;3.90;99.90;;;;;;4995922;28;21054;-79
2021/03/22 00:52:48;;;;;;;25.70;3.90;;;4.00;99.90;;;;;;5012950;28;20486;-79
2021/03/22 00:55:16;;;;;;;20.63;4.40;;;3.90;99.90;;;;;;4992538;28;20487;-79
2021/03/22 00:57:43;;;;;;;15.33;3.37;;;3.80;99.90;;;;;;4992951;28;20826;-79
2021/03/22 01:00:21;;;;;;;17.70;3.60;;;3.90;99.90;;;;;;4992099;28;20489;-80
2021/03/22 01:02:48;;;;;;;22.80;4.23;;;4.00;99.90;;;;;;4992111;28;20477;-80
2021/03/22 01:05:18;;;;;;;19.63;4.00;;;4.10;99.90;;;;;;4992313;28;20568;-79
2021/03/22 01:07:47;;;;;;;20.27;3.70;;;4.20;99.90;;;;;;4992153;28;20486;-79
2021/03/22 01:10:31;;;;;;;25.27;4.57;;;4.40;99.90;;;;;;4991993;28;20587;-80
2021/03/22 01:12:59;;;;;;;20.77;3.43;;;4.30;99.90;;;;;;4995667;28;20521;-79
2021/03/22 01:15:28;;;;;;;25.13;4.30;;;4.20;99.90;;;;;;5003470;28;20501;-79
2021/03/22 01:17:55;;;;;;;17.77;3.80;;;4.10;99.90;;;;;;5000715;28;20480;-79
2021/03/22 01:20:31;;;;;;;15.83;3.70;;;4.10;99.90;;;;;;5003705;28;20480;-79
2021/03/22 01:22:59;;;;;;;19.87;3.90;;;4.10;99.90;;;;;;5012079;28;20483;-79
2021/03/22 01:25:26;;;;;;;19.50;3.77;;;4.20;99.90;;;;;;5000862;28;21061;-79
2021/03/22 01:27:56;;;;;;;22.73;3.97;;;4.10;99.90;;;;;;4992387;28;20491;-79
2021/03/22 01:30:31;;;;;;;20.40;3.83;;;4.10;99.90;;;;;;4990466;28;20479;-79
2021/03/22 01:32:59;;;;;;;19.60;3.83;;;4.00;99.90;;;;;;4991663;28;20484;-79
2021/03/22 01:35:27;;;;;;;17.50;3.33;;;4.00;99.90;;;;;;4992398;28;20976;-79
2021/03/22 01:37:54;;;;;;;22.17;4.20;;;4.00;99.90;;;;;;4992206;28;20546;-79
2021/03/22 01:40:42;;;;;;;23.80;4.33;;;4.10;99.90;;;;;;4991966;28;20968;-79
2021/03/22 01:43:19;;;;;;;21.83;3.80;;;4.10;99.90;;;;;;4998209;28;20488;-79
2021/03/22 01:45:48;;;;;;;24.27;3.57;;;4.20;99.90;;;;;;5017186;28;20481;-80
2021/03/22 01:48:15;;;;;;;19.53;3.70;;;4.20;99.90;;;;;;4998877;28;20485;-79
2021/03/22 01:50:43;;;;;;;20.73;3.80;;;4.20;99.90;;;;;;4997647;28;20471;-79
2021/03/22 01:53:11;;;;;;;25.73;4.17;;;4.40;99.90;;;;;;4991380;28;20497;-79
2021/03/22 01:55:38;;;;;;;21.47;4.30;;;4.30;99.90;;;;;;4991079;28;21053;-80
2021/03/22 01:58:05;;;;;;;24.10;4.17;;;4.20;99.90;;;;;;4991188;28;20467;-79
2021/03/22 02:00:36;;;;;;;27.30;4.73;;;4.20;99.90;;;;;;4990363;28;20484;-80
2021/03/22 02:03:09;;;;;;;17.23;3.70;;;4.20;99.90;;;;;;4991416;28;20484;-80
2021/03/22 02:05:40;;;;;;;25.27;4.00;;;4.20;99.90;;;;;;4991231;28;20469;-79
2021/03/22 02:08:12;;;;;;;24.50;4.10;;;4.20;99.90;;;;;;4991383;28;20500;-79
2021/03/22 02:10:43;;;;;;;21.83;3.87;;;4.10;99.90;;;;;;4991119;28;20981;-79
2021/03/22 02:13:14;;;;;;;22.37;3.97;;;4.10;99.90;;;;;;4995461;28;20540;-79
2021/03/22 02:15:45;;;;;;;20.90;4.10;;;4.10;99.90;;;;;;4999561;28;20477;-79
2021/03/22 02:18:21;;;;;;;25.67;4.70;;;4.10;99.90;;;;;;5002902;28;20472;-79
2021/03/22 02:21:31;;;;;;;21.03;4.27;;;4.10;99.90;;;;;;5009893;28;21070;-80
2021/03/22 02:24:40;;;;;;;19.97;3.90;;;4.10;99.90;;;;;;5008854;28;20534;-79
2021/03/22 02:27:54;;;;;;;17.70;3.83;;;4.10;99.90;;;;;;4990782;28;20969;-79
2021/03/22 02:30:56;;;;;;;21.07;4.47;;;4.10;99.90;;;;;;4989965;28;20479;-79
2021/03/22 02:34:09;;;;;;;20.33;4.03;;;4.10;99.90;;;;;;4990843;28;20837;-79
2021/03/22 02:36:48;;;;;;;24.93;4.40;;;4.10;99.90;;;;;;4989263;28;20788;-79
2021/03/22 02:39:16;;;;;;;22.27;4.40;;;4.20;99.90;;;;;;4990218;28;20481;-80
2021/03/22 02:41:48;;;;;;;28.70;4.63;;;4.20;99.90;;;;;;4995410;28;20868;-79
2021/03/22 02:44:22;;;;;;;20.10;4.20;;;4.20;99.90;;;;;;5007031;28;20850;-79
2021/03/22 02:46:54;;;;;;;21.97;4.13;;;4.20;99.90;;;;;;5002941;28;20632;-80
2021/03/22 02:49:25;;;;;;;18.73;4.43;;;4.20;99.90;;;;;;5000627;28;20832;-79
2021/03/22 02:52:10;;;;;;;28.70;5.10;;;4.20;99.90;;;;;;5010555;28;20487;-79
2021/03/22 02:54:52;;;;;;;16.87;4.23;;;4.20;99.90;;;;;;5010646;28;20982;-79
2021/03/22 02:57:27;;;;;;;27.83;4.43;;;4.20;99.90;;;;;;5009916;28;20480;-81
2021/03/22 03:00:00;;;;;;;25.47;5.10;;;4.20;99.90;;;;;;5010165;28;20491;-79
2021/03/22 03:02:49;;;;;;;17.10;4.73;;;4.20;99.90;;;;;;4948474;29;20594;-79
2021/03/22 03:05:23;;;;;;;24.43;4.53;;;4.20;99.90;;;;;;4949246;29;20563;-80
2021/03/22 03:07:50;;;;;;;22.30;4.90;;;4.20;99.90;;;;;;4947670;29;20521;-79
2021/03/22 03:10:22;;;;;;;20.40;5.27;;;4.20;99.90;;;;;;4943889;29;20505;-79
2021/03/22 03:12:50;;;;;;;25.10;5.00;;;4.20;99.90;;;;;;4941491;29;20490;-79
2021/03/22 03:15:21;;;;;;;22.07;4.30;;;4.20;99.90;;;;;;4938609;29;20542;-79
2021/03/22 03:17:51;;;;;;;18.23;5.03;;;4.20;99.90;;;;;;4932372;29;20491;-81
2021/03/22 03:20:23;;;;;;;18.10;4.67;;;4.20;99.90;;;;;;4954797;28;20483;-79
2021/03/22 03:22:53;;;;;;;22.90;5.67;;;4.20;99.90;;;;;;4989441;28;20477;-79
2021/03/22 03:25:22;;;;;;;22.67;4.43;;;4.20;99.90;;;;;;4999643;28;20826;-79
2021/03/22 03:27:50;;;;;;;25.17;5.00;;;4.20;99.90;;;;;;5009275;28;20502;-81
2021/03/22 03:30:21;;;;;;;20.93;5.00;;;4.20;99.90;;;;;;5008212;28;20483;-80
2021/03/22 03:32:49;;;;;;;20.60;4.77;;;4.20;99.90;;;;;;5009260;28;20480;-79
2021/03/22 03:35:21;;;;;;;22.47;5.17;;;4.20;99.90;;;;;;5009526;28;20594;-79
2021/03/22 03:37:49;;;;;;;23.40;5.87;;;4.20;99.90;;;;;;5002860;28;20496;-79
2021/03/22 03:40:22;;;;;;;25.97;6.30;;;4.30;99.90;;;;;;5001422;28;20476;-79
2021/03/22 03:42:49;;;;;;;21.60;5.73;;;4.20;99.90;;;;;;5022280;28;20466;-79
2021/03/22 03:45:19;;;;;;;22.17;5.70;;;4.20;99.90;;;;;;5001373;28;20480;-79
2021/03/22 03:47:52;;;;;;;26.63;6.00;;;4.20;99.90;;;;;;5009803;28;20552;-79
2021/03/22 03:50:26;;;;;;;22.17;4.93;;;4.30;99.90;;;;;;5008802;28;20485;-79
2021/03/22 03:52:54;;;;;;;18.60;4.73;;;4.20;99.90;;;;;;5006779;28;20468;-79
2021/03/22 03:55:26;;;;;;;21.93;5.47;;;4.30;99.90;;;;;;5009144;28;20507;-80
2021/03/22 03:57:54;;;;;;;19.67;5.37;;;4.30;99.90;;;;;;5008744;28;20998;-79
2021/03/22 04:00:27;;;;;;;19.20;5.37;;;4.30;99.90;;;;;;5008563;28;20909;-79
2021/03/22 04:02:56;;;;;;;15.73;4.50;;;4.30;99.90;;;;;;5024766;28;20613;-80
2021/03/22 04:05:28;;;;;;;18.43;5.57;;;4.30;99.90;;;;;;5006598;28;21058;-79
2021/03/22 04:07:55;;;;;;;20.77;5.33;;;4.30;99.90;;;;;;5004364;28;20832;-80
2021/03/22 04:10:23;;;;;;;23.33;5.33;;;4.30;99.90;;;;;;5003158;28;20515;-80
2021/03/22 04:12:50;;;;;;;20.07;5.23;;;4.30;99.90;;;;;;5002339;28;20525;-80
2021/03/22 04:15:17;;;;;;;21.60;4.80;;;4.30;99.90;;;;;;5007018;28;20484;-79
2021/03/22 04:17:45;;;;;;;18.73;5.10;;;4.30;99.90;;;;;;5023965;28;21858;-79
2021/03/22 04:20:14;;;;;;;28.87;5.70;;;4.30;99.90;;;;;;5005476;28;20812;-79
2021/03/22 04:22:42;;;;;;;18.47;4.77;;;4.30;99.90;;;;;;5009265;28;20460;-79
2021/03/22 04:25:12;;;;;;;25.87;4.60;;;4.30;99.90;;;;;;5000051;28;20233;-79
2021/03/22 04:27:40;;;;;;;19.73;5.40;;;4.30;99.90;;;;;;4989079;28;20469;-79
2021/03/22 04:30:09;;;;;;;23.90;5.90;;;4.30;99.90;;;;;;4988162;28;20535;-79
2021/03/22 04:32:37;;;;;;;22.27;5.37;;;4.30;99.90;;;;;;4994977;28;20471;-79
2021/03/22 04:35:07;;;;;;;19.03;5.23;;;4.30;99.90;;;;;;5007157;28;20475;-79
2021/03/22 04:37:34;;;;;;;15.40;5.53;;;4.30;99.90;;;;;;4993391;28;21444;-79
2021/03/22 04:40:05;;;;;;;23.07;5.60;;;4.30;99.90;;;;;;4996091;28;20885;-80
2021/03/22 04:42:32;;;;;;;23.13;5.50;;;4.30;99.90;;;;;;4997430;28;20546;-79
2021/03/22 04:45:00;;;;;;;16.67;4.70;;;4.30;99.90;;;;;;4987870;28;20480;-79
2021/03/22 04:47:27;;;;;;;20.83;5.57;;;4.30;99.90;;;;;;4989158;28;20292;-79
2021/03/22 04:49:55;;;;;;;23.43;4.93;;;4.30;99.90;;;;;;4988806;28;20498;-79
2021/03/22 04:52:23;;;;;;;16.70;5.10;;;4.30;99.90;;;;;;4988100;28;20534;-79
2021/03/22 04:54:50;;;;;;;17.73;4.80;;;4.30;99.90;;;;;;5003940;28;20477;-79
2021/03/22 04:57:26;;;;;;;19.43;6.07;;;4.30;99.90;;;;;;4989534;28;20513;-80
2021/03/22 04:59:55;;;;;;;22.70;5.67;;;4.20;99.90;;;;;;5002069;28;20470;-79
2021/03/22 05:02:23;;;;;;;20.40;5.60;;;4.20;99.90;;;;;;5005354;28;20536;-79
2021/03/22 05:04:58;;;;;;;21.93;4.90;;;4.20;99.90;;;;;;4996889;28;20475;-80
2021/03/22 05:07:26;;;;;;;19.23;5.30;;;4.20;99.90;;;;;;5002776;28;20572;-79
2021/03/22 05:09:53;;;;;;;18.57;5.10;;;4.20;99.90;;;;;;4999020;28;20548;-80
2021/03/22 05:12:20;;;;;;;18.57;4.33;;;4.20;99.90;;;;;;5012600;28;20487;-79
2021/03/22 05:14:50;;;;;;;21.07;5.00;;;4.20;99.90;;;;;;5012080;28;20487;-80
2021/03/22 05:17:18;;;;;;;19.57;5.13;;;4.20;99.90;;;;;;5012431;28;20507;-79
2021/03/22 05:19:46;;;;;;;21.53;5.27;;;4.20;99.90;;;;;;5008345;28;20487;-79
2021/03/22 05:22:13;;;;;;;15.83;4.87;;;4.20;99.90;;;;;;5012246;28;20494;-80
2021/03/22 05:24:40;;;;;;;25.10;5.60;;;4.20;99.90;;;;;;5007442;28;20544;-80
2021/03/22 05:27:09;;;;;;;16.57;4.70;;;4.10;99.90;;;;;;5004563;28;20502;-81
2021/03/22 05:29:37;;;;;;;22.03;5.80;;;4.10;99.90;;;;;;5008526;28;20505;-79
2021/03/22 05:32:27;;;;;;;14.93;5.20;;;4.10;99.90;;;;;;5001803;28;20491;-80
2021/03/22 05:34:55;;;;;;;14.07;4.53;;;4.10;99.90;;;;;;5017080;28;20478;-80
2021/03/22 05:37:23;;;;;;;13.33;4.70;;;4.10;99.90;;;;;;5002892;28;21012;-79
2021/03/22 05:39:50;;;;;;;20.23;4.80;;;4.10;99.90;;;;;;5006896;28;20493;-79
2021/03/22 05:42:40;;;;;;;18.17;4.97;;;4.10;99.90;;;;;;5010593;28;20487;-80
2021/03/22 05:45:33;;;;;;;16.80;5.33;;;4.10;99.90;;;;;;5003283;28;20471;-79
2021/03/22 05:48:12;;;;;;;21.07;5.57;;;4.10;99.90;;;;;;5009437;28;20471;-79
2021/03/22 05:50:47;;;;;;;16.03;4.90;;;4.10;99.90;;;;;;5001385;28;21001;-79
2021/03/22 05:53:36;;;;;;;19.80;4.87;;;4.20;99.90;;;;;;5008747;28;20482;-80
2021/03/22 05:56:10;;;;;;;17.67;5.27;;;4.20;99.90;;;;;;5000487;28;20528;-79
2021/03/22 05:58:55;;;;;;;20.00;5.67;;;4.20;99.90;;;;;;4991762;28;20468;-78
2021/03/22 06:01:39;;;;;;;18.77;5.90;;;4.10;99.90;;;;;;4992552;28;20532;-79
2021/03/22 06:04:23;;;;;;;22.63;5.30;;;4.10;99.90;;;;;;5002566;28;21228;-80
2021/03/22 06:06:52;;;;;;;15.90;4.87;;;4.10;99.90;;;;;;5006600;28;20480;-79
2021/03/22 06:09:30;;;;;;;19.90;5.83;;;4.00;99.90;;;;;;4999960;28;20495;-81
2021/03/22 06:12:07;;;;;;;20.27;5.47;;;4.00;99.90;;;;;;4990960;28;20983;-79
2021/03/22 06:14:44;;;;;;;17.93;5.67;;;4.00;99.90;;;;;;4997976;28;20491;-79
2021/03/22 06:17:25;;;;;;;19.47;5.30;;;4.00;99.90;;;;;;5000490;28;20546;-81
2021/03/22 06:20:19;;;;;;;18.03;5.03;;;4.00;99.90;;;;;;4997543;28;20523;-81
2021/03/22 06:22:48;;;;;;;17.70;5.60;;;4.10;99.90;;;;;;5000640;28;20495;-80
2021/03/22 06:25:20;;;;;;;17.23;5.47;;;4.10;99.90;;;;;;4999671;28;20558;-80
2021/03/22 06:27:52;;;;;;;13.97;4.90;;;4.20;99.90;;;;;;4999879;28;20473;-81
2021/03/22 06:30:23;;;;;;;15.63;5.53;;;4.20;99.90;;;;;;5000262;28;20516;-80
2021/03/22 06:32:56;;;;;;;18.00;5.80;;;4.30;99.90;;;;;;5004079;28;20493;-80
2021/03/22 06:35:32;;;;;;;22.87;5.97;;;4.30;99.90;;;;;;4996444;28;21018;-79
2021/03/22 06:37:59;;;;;;;17.77;5.30;;;4.40;99.90;;;;;;4997131;28;20484;-81
2021/03/22 06:40:33;;;;;;;16.97;5.13;;;4.40;99.90;;;;;;4989302;28;20477;-80
2021/03/22 06:43:11;;;;;;;18.37;6.10;;;4.40;99.90;;;;;;4989925;28;20492;-80
2021/03/22 06:45:42;;;;;;;17.23;5.20;;;4.40;99.90;;;;;;4988348;28;20490;-80
2021/03/22 06:48:25;;;;;;;15.87;5.50;;;4.40;99.90;;;;;;4990088;28;20491;-81
2021/03/22 06:51:15;;;;;;;20.40;5.80;;;4.50;99.90;;;;;;4992735;28;20526;-81
2021/03/22 06:53:46;;;;;;;19.07;5.43;;;4.60;99.90;;;;;;5010515;28;20485;-80
2021/03/22 06:56:20;;;;;;;19.50;5.43;;;4.80;99.90;;;;;;5010499;28;20510;-80
2021/03/22 06:58:50;;;;;;;16.13;5.67;;;4.90;99.90;;;;;;5008897;28;20464;-80
2021/03/22 07:01:28;;;;;;;20.73;5.60;;;5.10;99.90;;;;;;4993126;28;20476;-81
2021/03/22 07:04:26;;;;;;;15.00;4.47;;;5.30;99.90;;;;;;5010538;28;20963;-80
2021/03/22 07:07:15;;;;;;;22.37;5.13;;;5.40;99.90;;;;;;4998183;28;20934;-81
2021/03/22 07:09:52;;;;;;;17.73;5.43;;;5.60;99.90;;;;;;4989892;28;20229;-81
2021/03/22 07:12:31;;;;;;;18.30;5.50;;;5.70;99.90;;;;;;4989877;28;20490;-81
2021/03/22 07:15:25;;;;;;;19.37;6.17;;;5.80;99.90;;;;;;5007241;28;20236;-81
2021/03/22 07:18:15;;;;;;;17.23;6.00;;;5.80;99.90;;;;;;5009188;28;20270;-81
2021/03/22 07:21:07;;;;;;;16.37;6.20;;;5.90;99.90;;;;;;5008711;28;20266;-81
2021/03/22 07:24:03;;;;;;;18.00;6.97;;;5.90;99.90;;;;;;4989588;28;20332;-81
2021/03/22 07:26:47;;;;;;;21.30;6.80;;;6.10;99.90;;;;;;5008998;28;20236;-81
2021/03/22 07:30:03;;;;;;;20.00;6.30;;;6.30;99.90;;;;;;5004750;28;20272;-81
2021/03/22 07:32:52;;;;;;;16.10;6.70;;;6.40;99.90;;;;;;5002584;28;21063;-82
2021/03/22 07:36:18;;;;;;;15.80;6.37;;;6.60;99.90;;;;;;5006910;28;20241;-81
2021/03/22 07:39:25;;;;;;;16.80;6.77;;;6.80;99.90;;;;;;4990870;28;20275;-82
2021/03/22 07:42:07;;;;;;;18.90;6.83;;;6.80;99.90;;;;;;5001251;28;20562;-81
2021/03/22 07:45:16;;;;;;;17.73;7.20;;;6.70;99.90;;;;;;5006846;28;20462;-83
2021/03/22 07:48:32;;;;;;;15.40;5.50;;;6.70;99.90;;;;;;5021613;28;20335;-82
2021/03/22 07:51:34;;;;;;;19.80;6.17;;;6.50;99.90;;;;;;5005550;28;20782;-82
2021/03/22 07:54:10;;;;;;;18.33;5.93;;;6.30;99.90;;;;;;5006370;28;20229;-82
2021/03/22 07:56:52;;;;;;;13.87;6.00;;;6.20;99.90;;;;;;4997408;28;20241;-82
2021/03/22 07:59:35;;;;;;;18.47;5.67;;;6.20;99.90;;;;;;5008566;28;20492;-81
2021/03/22 08:02:22;;;;;;;15.37;5.93;;;6.20;99.90;;;;;;4993211;28;20728;-82
2021/03/22 08:04:58;;;;;;;15.57;5.13;;;6.30;99.90;;;;;;5021577;28;21025;-83
2021/03/22 08:07:56;;;;;;;14.50;5.83;;;6.50;99.90;;;;;;5006484;28;20248;-81
2021/03/22 08:10:48;;;;;;;13.33;4.93;;;6.60;99.90;;;;;;5015075;28;20237;-83
2021/03/22 08:13:36;;;;;;;13.50;5.43;;;6.70;99.90;;;;;;4990330;28;20315;-83
2021/03/22 08:16:32;;;;;;;10.83;4.60;;;6.80;99.90;;;;;;5004820;28;20237;-84
2021/03/22 08:19:08;;;;;;;12.30;4.73;;;6.70;99.90;;;;;;4981248;28;20361;-82
2021/03/22 08:21:40;;;;;;;12.17;4.53;;;6.60;99.90;;;;;;5008640;28;20299;-83
2021/03/22 08:24:22;;;;;;;12.40;4.63;;;6.50;99.90;;;;;;5002231;28;20720;-82
2021/03/22 08:26:58;;;;;;;12.83;4.87;;;6.50;99.90;;;;;;4986816;28;20303;-83
2021/03/22 08:29:31;;;;;;;10.70;4.47;;;6.50;99.90;;;;;;4984959;28;20663;-82
2021/03/22 08:32:12;;;;;;;15.87;5.20;;;6.60;99.90;;;;;;4998872;28;20645;-82
2021/03/22 08:34:47;;;;;;;13.47;4.77;;;6.90;99.90;;;;;;4992339;28;20268;-82
2021/03/22 08:37:21;;;;;;;13.10;4.90;;;7.20;99.90;;;;;;5008719;28;20359;-83
2021/03/22 08:39:57;;;;;;;9.77;4.33;;;7.50;99.90;;;;;;5000726;28;20948;-82
2021/03/22 08:42:28;;;;;;;12.70;4.80;;;7.60;99.90;;;;;;4990991;28;21059;-82
2021/03/22 08:45:03;;;;;;;9.23;4.60;;;7.70;99.90;;;;;;4987158;28;20730;-82
2021/03/22 08:47:43;;;;;;;12.67;5.00;;;7.70;99.90;;;;;;4988064;28;20341;-82
2021/03/22 08:50:15;;;;;;;9.37;4.50;;;7.70;99.90;;;;;;4986370;28;20238;-83
2021/03/22 08:52:54;;;;;;;10.73;5.20;;;7.70;99.90;;;;;;4990039;28;20249;-83
2021/03/22 08:55:27;;;;;;;12.47;4.73;;;7.70;99.90;;;;;;4984665;28;20253;-83
2021/03/22 08:58:01;;;;;;;9.87;4.47;;;8.00;99.90;;;;;;4989288;28;20290;-82
2021/03/22 09:00:35;;;;;;;11.20;4.00;;;8.20;99.90;;;;;;4983926;28;20288;-83
2021/03/22 09:03:21;;;;;;;13.53;4.57;;;8.30;99.90;;;;;;4988832;28;20767;-83
2021/03/22 09:06:14;;;;;;;11.77;4.67;;;8.30;99.90;;;;;;5001521;28;20237;-83
2021/03/22 09:09:25;;;;;;;14.40;4.37;;;8.40;99.90;;;;;;4986213;28;20728;-82
2021/03/22 09:11:53;;;;;;;12.20;4.80;;;8.90;99.90;;;;;;4985593;28;20240;-83
2021/03/22 09:14:36;;;;;;;9.67;4.80;;;8.90;99.90;;;;;;4990008;28;20256;-83
2021/03/22 09:17:23;;;;;;;13.83;5.47;;;8.60;99.90;;;;;;4991074;28;20508;-83
2021/03/22 09:20:17;;;;;;;8.43;4.50;;;8.20;99.90;;;;;;5006531;28;20250;-83
2021/03/22 09:22:53;;;;;;;10.20;4.70;;;8.20;99.90;;;;;;4995247;28;20244;-82
2021/03/22 09:26:03;;;;;;;9.83;4.50;;;8.10;99.90;;;;;;4987132;28;20846;-83
2021/03/22 09:28:48;;;;;;;9.57;4.27;;;8.60;99.90;;;;;;4990044;28;20332;-83
2021/03/22 09:31:45;;;;;;;9.37;3.93;;;9.00;99.90;;;;;;4982989;28;20533;-81
2021/03/22 09:34:38;;;;;;;9.73;4.03;;;8.70;99.90;;;;;;4961943;28;20241;-81
2021/03/22 09:37:49;;;;;;;11.27;4.73;;;8.40;99.90;;;;;;4990541;28;20246;-77
2021/03/22 09:40:54;;;;;;;7.67;3.73;;;8.70;99.90;;;;;;4989126;28;20245;-80
2021/03/22 09:43:33;;;;;;;8.80;4.07;;;8.60;99.90;;;;;;4985781;28;20269;-79
2021/03/22 09:46:41;;;;;;;10.10;4.40;;;8.40;99.90;;;;;;4985570;28;20229;-79
2021/03/22 09:49:27;;;;;;;10.13;4.00;;;8.20;99.90;;;;;;4986542;28;20238;-79
2021/03/22 09:52:23;;;;;;;6.70;3.73;;;8.60;99.90;;;;;;4982796;28;20390;-79
2021/03/22 09:54:51;;;;;;;7.70;3.63;;;9.30;99.90;;;;;;4982888;28;20247;-79
2021/03/22 09:57:40;;;;;;;6.43;3.70;;;9.40;99.90;;;;;;4987274;28;20245;-80
2021/03/22 10:00:52;;;;;;;8.73;3.73;;;9.30;99.90;;;;;;4980402;28;20609;-79
2021/03/22 10:03:50;;;;;;;9.70;3.63;;;9.70;99.90;;;;;;4985190;28;20241;-79
2021/03/22 10:06:51;;;;;;;8.60;3.73;;;10.00;99.90;;;;;;4987638;28;20353;-79
2021/03/22 10:09:26;;;;;;;10.07;3.70;;;9.70;99.90;;;;;;5002543;28;20244;-79
2021/03/22 10:11:57;;;;;;;8.50;3.27;;;9.40;99.90;;;;;;4977449;28;20252;-79
2021/03/22 10:14:34;;;;;;;7.40;2.87;;;9.30;99.90;;;;;;4983254;28;20237;-79
2021/03/22 10:17:04;;;;;;;7.33;3.10;;;9.40;99.90;;;;;;4985752;28;20236;-77
2021/03/22 10:19:36;;;;;;;6.73;2.90;;;9.20;99.90;;;;;;4996464;28;20612;-79
2021/03/22 10:22:13;;;;;;;7.30;3.17;;;8.80;99.90;;;;;;4986736;28;20255;-80
2021/03/22 10:24:54;;;;;;;7.90;2.80;;;8.60;99.90;;;;;;4979797;28;20247;-80
2021/03/22 10:27:28;;;;;;;8.13;2.70;;;8.90;99.90;;;;;;4980928;28;20247;-80
2021/03/22 10:30:14;;;;;;;8.60;2.83;;;9.40;99.90;;;;;;4994270;28;20233;-79
2021/03/22 10:32:49;;;;;;;7.23;2.67;;;9.70;99.90;;;;;;4981467;28;20919;-80
2021/03/22 10:35:20;;;;;;;8.23;2.40;;;9.50;99.90;;;;;;4975167;28;20320;-79
2021/03/22 10:37:51;;;;;;;9.03;2.47;;;9.20;99.90;;;;;;4979292;28;20243;-79
2021/03/22 10:40:29;;;;;;;5.83;2.30;;;9.20;99.90;;;;;;4978624;28;20271;-79
2021/03/22 10:42:58;;;;;;;6.93;2.57;;;9.40;99.90;;;;;;4993716;28;20651;-79
2021/03/22 10:45:41;;;;;;;6.83;2.83;;;9.30;99.90;;;;;;4993136;28;20246;-79
2021/03/22 10:48:34;;;;;;;5.60;2.30;;;9.30;99.90;;;;;;4980880;28;20272;-80
2021/03/22 10:51:13;;;;;;;5.03;2.20;;;9.10;99.90;;;;;;4984334;28;20249;-79
2021/03/22 10:53:59;;;;;;;10.93;2.93;;;8.90;99.90;;;;;;4980792;28;20746;-79
2021/03/22 10:56:36;;;;;;;7.23;2.13;;;9.00;99.90;;;;;;4978327;28;20308;-79
2021/03/22 10:59:11;;;;;;;8.47;2.50;;;9.10;99.90;;;;;;4979248;28;20237;-80
2021/03/22 11:01:39;;;;;;;6.40;1.83;;;9.00;99.90;;;;;;4984724;28;20252;-80
2021/03/22 11:04:17;;;;;;;7.03;2.20;;;9.00;99.90;;;;;;4986323;28;21685;-79
2021/03/22 11:06:48;;;;;;;6.13;2.37;;;8.90;99.90;;;;;;4983139;28;20261;-79
2021/03/22 11:09:24;;;;;;;7.20;2.37;;;8.80;99.90;;;;;;4985518;28;20252;-79
2021/03/22 11:11:54;;;;;;;6.40;2.10;;;8.90;99.90;;;;;;4982168;28;20266;-80
2021/03/22 11:14:25;;;;;;;8.63;2.10;;;8.90;99.90;;;;;;4984082;28;20308;-78
2021/03/22 11:16:53;;;;;;;6.83;2.63;;;8.80;99.90;;;;;;4990411;28;20241;-79
2021/03/22 11:19:37;;;;;;;6.10;2.17;;;8.80;99.90;;;;;;4990455;28;20253;-79
2021/03/22 11:22:23;;;;;;;5.33;1.93;;;8.80;99.90;;;;;;5000121;28;20229;-80
2021/03/22 11:24:54;;;;;;;5.37;2.07;;;8.70;99.90;;;;;;4980908;28;20288;-79
2021/03/22 11:27:26;;;;;;;8.43;1.90;;;8.80;99.90;;;;;;4986615;28;20310;-79
2021/03/22 11:30:00;;;;;;;5.80;1.90;;;8.80;99.90;;;;;;4981057;28;20257;-79
2021/03/22 11:32:31;;;;;;;5.83;2.20;;;8.80;99.90;;;;;;4982884;28;20236;-80
2021/03/22 11:34:59;;;;;;;4.87;1.80;;;8.80;99.90;;;;;;4982752;28;20265;-80
2021/03/22 11:37:29;;;;;;;6.37;2.00;;;8.80;99.90;;;;;;4981074;28;20238;-79
2021/03/22 11:40:05;;;;;;;8.33;2.27;;;8.70;99.90;;;;;;4982009;28;20706;-80
2021/03/22 11:42:38;;;;;;;6.83;1.87;;;8.70;99.90;;;;;;4982897;28;20310;-80
2021/03/22 11:45:29;;;;;;;7.60;2.23;;;8.70;99.90;;;;;;4979656;28;20252;-79
2021/03/22 11:47:57;;;;;;;5.00;1.87;;;8.70;99.90;;;;;;4981621;28;20241;-80
2021/03/22 11:50:36;;;;;;;5.27;2.10;;;8.70;99.90;;;;;;4984924;28;20252;-80
2021/03/22 11:53:21;;;;;;;8.90;2.40;;;8.70;99.90;;;;;;4980995;28;20320;-80
2021/03/22 11:55:51;;;;;;;7.37;2.47;;;8.70;99.90;;;;;;4978792;28;20795;-80
2021/03/22 11:58:36;;;;;;;6.80;2.10;;;8.90;99.90;;;;;;4981583;28;20328;-80
2021/03/22 12:01:21;;;;;;;6.70;2.20;;;8.90;99.90;;;;;;4993430;28;20233;-80
2021/03/22 12:04:18;;;;;;;10.27;2.70;;;8.70;99.90;;;;;;5005014;28;20256;-80
2021/03/22 12:06:57;;;;;;;7.33;2.40;;;8.50;99.90;;;;;;4995698;28;20247;-80
2021/03/22 12:09:27;;;;;;;6.50;2.23;;;8.40;99.90;;;;;;4995018;28;20242;-80
2021/03/22 12:11:56;;;;;;;8.10;2.27;;;8.40;99.90;;;;;;4998881;28;20264;-80
2021/03/22 12:14:26;;;;;;;10.80;2.30;;;8.60;99.90;;;;;;4997666;28;20717;-80
2021/03/22 12:17:05;;;;;;;6.77;2.33;;;8.80;99.90;;;;;;5018307;28;20697;-80
2021/03/22 12:19:37;;;;;;;6.23;1.87;;;8.80;99.90;;;;;;5019087;28;20233;-80
2021/03/22 12:22:06;;;;;;;8.97;1.83;;;8.80;99.90;;;;;;5000482;28;20242;-80
2021/03/22 12:24:37;;;;;;;6.03;2.00;;;8.90;99.90;;;;;;5004331;28;20746;-80
2021/03/22 12:27:10;;;;;;;6.93;2.13;;;9.00;99.90;;;;;;4999717;28;20600;-80
2021/03/22 12:29:39;;;;;;;8.93;2.47;;;8.90;99.90;;;;;;5002345;28;20240;-80
2021/03/22 12:32:16;;;;;;;6.60;1.70;;;8.90;99.90;;;;;;5014662;28;20255;-80
2021/03/22 12:34:43;;;;;;;8.70;1.97;;;8.70;99.90;;;;;;5001771;28;20241;-80
2021/03/22 12:37:23;;;;;;;8.50;2.00;;;8.50;99.90;;;;;;5002291;28;20237;-80
2021/03/22 12:39:51;;;;;;;5.87;2.00;;;8.60;99.90;;;;;;5003871;28;20244;-81
2021/03/22 12:42:20;;;;;;;7.73;2.43;;;8.60;99.90;;;;;;5000891;28;20233;-80
2021/03/22 12:44:48;;;;;;;6.10;1.80;;;8.60;99.90;;;;;;5005039;28;20233;-80
2021/03/22 12:47:19;;;;;;;7.30;2.00;;;8.70;99.90;;;;;;4999721;28;20675;-80
2021/03/22 12:49:47;;;;;;;5.00;1.63;;;8.80;99.90;;;;;;5009497;28;20320;-80
2021/03/22 12:52:15;;;;;;;5.57;1.50;;;8.70;99.90;;;;;;5015807;28;20249;-80
2021/03/22 12:54:54;;;;;;;6.27;1.87;;;8.70;99.90;;;;;;4989583;28;20237;-80
2021/03/22 12:57:25;;;;;;;8.73;1.90;;;8.60;99.90;;;;;;5013401;28;20233;-80
2021/03/22 12:59:56;;;;;;;6.07;2.00;;;8.40;99.90;;;;;;5003737;28;20236;-81
2021/03/22 13:02:27;;;;;;;8.30;1.50;;;8.40;99.90;;;;;;5001155;28;20264;-81
2021/03/22 13:04:56;;;;;;;5.43;1.60;;;8.30;99.90;;;;;;4998051;28;20230;-82
2021/03/22 13:07:25;;;;;;;6.63;1.60;;;8.20;99.90;;;;;;5000962;28;20241;-81
2021/03/22 13:09:52;;;;;;;5.37;1.43;;;8.30;99.90;;;;;;4999793;28;20245;-81
2021/03/22 13:12:23;;;;;;;5.70;1.40;;;8.40;99.90;;;;;;4999926;28;20258;-82
2021/03/22 13:14:54;;;;;;;6.87;1.40;;;8.30;99.90;;;;;;5000960;28;20260;-82
2021/03/22 13:17:28;;;;;;;4.77;1.50;;;8.20;99.90;;;;;;5000605;28;20237;-81
2021/03/22 13:19:56;;;;;;;6.00;1.90;;;8.10;99.90;;;;;;4999722;28;20242;-82
2021/03/22 13:22:26;;;;;;;7.37;1.70;;;8.00;99.90;;;;;;5001593;28;20316;-81
2021/03/22 13:25:00;;;;;;;7.53;1.77;;;8.00;99.90;;;;;;5000239;28;20237;-81
2021/03/22 13:27:28;;;;;;;5.73;1.63;;;8.10;99.90;;;;;;4998919;28;20244;-81
2021/03/22 13:29:56;;;;;;;8.63;1.80;;;8.10;99.90;;;;;;4999786;28;20229;-81
2021/03/22 13:32:24;;;;;;;6.03;1.67;;;8.20;99.90;;;;;;4997516;28;20245;-81
2021/03/22 13:34:53;;;;;;;6.47;2.13;;;8.30;99.90;;;;;;5016800;28;20261;-81
2021/03/22 13:37:25;;;;;;;7.43;1.70;;;8.30;99.90;;;;;;4999906;28;20340;-82